KGLW/GLW METAR and TAF weather

Enter ICAO airport designator
Station Type Date Time Source
KGLW METAR 2021/09/23 18:20 UTC NOAA

KGLW 231820Z AUTO 32006KT 10SM CLR 19/09 A3007 RMK AO2 T01880085


Station Type Date Time Source
KGLW Decoded METAR 2021/09/23 18:20 UTC NOAA

Glasgow, Glasgow Municipal Airport, KY, United States (KGLW) 37-01-54N 085-57-13W
Sep 23, 2021 - 02:20 PM EDT / 2021.09.23 1820 UTC
Wind: from the NW (320 degrees) at 7 MPH (6 KT):0
Visibility: 10 mile(s):0
Sky conditions: clear
Temperature: 65.8 F (18.8 C)
Dew Point: 47.3 F (8.5 C)
Relative Humidity: 51%
Pressure (altimeter): 30.07 in. Hg (1018 hPa)
ob: KGLW 231820Z AUTO 32006KT 10SM CLR 19/09 A3007 RMK AO2 T01880085
cycle: 18

Station Type Date Time Source
KGLW TAF UTC NOAA

Error!

Example: see airport list